This is the latest recevied weather packets stored in our database for station/object N6DZK. If no packets are shown the sender has not sent any weather packets the latest 10 day(s).
| Time | Temp. | Humidity | Pressure | Rain* | Wind** | Luminosity | Snow |
|---|---|---|---|---|---|---|---|
| 1777398256 | 18.33° C | 58% | 1020.7 hPa | 0 mm | - | 821 W/m² | - |
| 1777397954 | 18.33° C | 57% | 1020.6 hPa | 0 mm | - | 805 W/m² | - |
| 1777397649 | 18.33° C | 57% | 1020.7 hPa | 0 mm | - | 790 W/m² | - |
| 1777397346 | 18.33° C | 57% | 1020.6 hPa | 0 mm | - | 778 W/m² | - |
| 1777397042 | 17.78° C | 60% | 1020.6 hPa | 0 mm | - | 762 W/m² | - |
| 1777396739 | 17.78° C | 61% | 1020.6 hPa | 0 mm | - | 746 W/m² | - |
| 1777396436 | 17.22° C | 62% | 1020.6 hPa | 0 mm | - | 732 W/m² | - |
| 1777396132 | 17.22° C | 61% | 1020.6 hPa | 0 mm | - | 711 W/m² | - |
| 1777395829 | 17.22° C | 63% | 1020.6 hPa | 0 mm | - | 687 W/m² | - |
| 1777395524 | 17.78° C | 60% | 1020.3 hPa | 0 mm | - | 664 W/m² | - |
| 1777395221 | 17.78° C | 62% | 1020.4 hPa | 0 mm | - | 647 W/m² | - |
| 1777394919 | 17.22° C | 62% | 1020.7 hPa | 0 mm | - | 631 W/m² | - |
| 1777394613 | 16.67° C | 64% | 1020.4 hPa | 0 mm | - | 615 W/m² | - |
| 1777394311 | 16.67° C | 64% | 1020.6 hPa | 0 mm | - | 606 W/m² | - |
| 1777394007 | 16.67° C | 62% | 1020.6 hPa | 0 mm | - | 593 W/m² | - |
| 1777393707 | 17.22° C | 64% | 1020.5 hPa | 0 mm | - | 579 W/m² | - |
| 1777393402 | 16.67° C | 66% | 1020.5 hPa | 0 mm | - | 564 W/m² | - |
| 1777393099 | 16.11° C | 65% | 1020.3 hPa | 0 mm | - | 545 W/m² | - |
| 1777392795 | 15.56° C | 68% | 1020.5 hPa | 0 mm | - | 521 W/m² | - |
| 1777392491 | 16.11° C | 67% | 1020.5 hPa | 0 mm | - | 529 W/m² | - |
| 1777392187 | 16.11° C | 64% | 1020.4 hPa | 0 mm | - | 651 W/m² | - |
| 1777391882 | 16.11° C | 67% | 1020.5 hPa | 0 mm | - | 536 W/m² | - |
| 1777391577 | 15° C | 72% | 1020.3 hPa | 0 mm | - | 383 W/m² | - |
| 1777391274 | 15° C | 68% | 1020.4 hPa | 0 mm | - | 342 W/m² | - |
| 1777390970 | 14.44° C | 71% | 1020.3 hPa | 0 mm | - | 365 W/m² | - |
* Rain latest hour (hover to see other rain measurements)
** Current wind speed in m/s (hover to see current wind gust speed)